sensor_id;sensor_type;location;lat;lon;timestamp;pressure;altitude;pressure_sealevel;temperature;humidity
60089;BME280;45961;53.574;55.878;2023-01-31T00:01:13;100338.25;;;-9.91;80.82
60089;BME280;45961;53.574;55.878;2023-01-31T00:02:14;100342.22;;;-9.94;80.86
60089;BME280;45961;53.574;55.878;2023-01-31T00:03:15;100343.56;;;-9.88;80.79
60089;BME280;45961;53.574;55.878;2023-01-31T00:04:16;100339.97;;;-9.82;80.80
60089;BME280;45961;53.574;55.878;2023-01-31T00:05:17;100337.47;;;-9.82;80.62
60089;BME280;45961;53.574;55.878;2023-01-31T00:06:30;100347.34;;;-9.83;80.65
60089;BME280;45961;53.574;55.878;2023-01-31T00:07:31;100339.38;;;-9.79;80.57
60089;BME280;45961;53.574;55.878;2023-01-31T00:08:32;100344.59;;;-9.95;80.39
60089;BME280;45961;53.574;55.878;2023-01-31T00:09:33;100346.69;;;-10.00;80.37
60089;BME280;45961;53.574;55.878;2023-01-31T00:10:34;100353.00;;;-9.95;80.57
60089;BME280;45961;53.574;55.878;2023-01-31T00:11:35;100334.88;;;-9.92;80.46
60089;BME280;45961;53.574;55.878;2023-01-31T00:12:37;100340.59;;;-9.84;80.45
60089;BME280;45961;53.574;55.878;2023-01-31T00:13:39;100338.81;;;-9.85;80.27
60089;BME280;45961;53.574;55.878;2023-01-31T00:14:40;100332.16;;;-9.85;80.27
60089;BME280;45961;53.574;55.878;2023-01-31T00:15:41;100338.78;;;-9.77;80.14
60089;BME280;45961;53.574;55.878;2023-01-31T00:16:42;100329.53;;;-9.86;79.94
60089;BME280;45961;53.574;55.878;2023-01-31T00:17:43;100336.03;;;-9.88;79.72
60089;BME280;45961;53.574;55.878;2023-01-31T00:18:45;100341.28;;;-9.77;79.61
60089;BME280;45961;53.574;55.878;2023-01-31T00:19:46;100344.09;;;-9.82;79.42
60089;BME280;45961;53.574;55.878;2023-01-31T00:20:47;100344.16;;;-9.91;79.45
60089;BME280;45961;53.574;55.878;2023-01-31T00:21:48;100337.91;;;-9.86;79.33
60089;BME280;45961;53.574;55.878;2023-01-31T00:22:49;100337.75;;;-9.79;79.34
60089;BME280;45961;53.574;55.878;2023-01-31T00:24:16;100343.44;;;-9.71;79.20
60089;BME280;45961;53.574;55.878;2023-01-31T00:25:18;100340.47;;;-9.67;79.06
60089;BME280;45961;53.574;55.878;2023-01-31T00:26:20;100336.13;;;-9.78;79.00
60089;BME280;45961;53.574;55.878;2023-01-31T00:27:21;100341.72;;;-9.81;78.92
60089;BME280;45961;53.574;55.878;2023-01-31T00:28:22;100337.63;;;-9.89;79.07
60089;BME280;45961;53.574;55.878;2023-01-31T00:29:24;100337.63;;;-9.89;79.10
60089;BME280;45961;53.574;55.878;2023-01-31T00:30:25;100339.78;;;-9.75;79.12
60089;BME280;45961;53.574;55.878;2023-01-31T00:31:28;100342.28;;;-9.75;78.92
60089;BME280;45961;53.574;55.878;2023-01-31T00:32:29;100343.50;;;-9.80;79.07
60089;BME280;45961;53.574;55.878;2023-01-31T00:33:32;100338.34;;;-9.81;78.99
60089;BME280;45961;53.574;55.878;2023-01-31T00:34:33;100341.28;;;-9.77;79.10
60089;BME280;45961;53.574;55.878;2023-01-31T00:35:37;100341.72;;;-9.81;79.07
60089;BME280;45961;53.574;55.878;2023-01-31T00:36:38;100342.88;;;-9.77;79.03
60089;BME280;45961;53.574;55.878;2023-01-31T00:37:42;100336.00;;;-9.80;79.06
60089;BME280;45961;53.574;55.878;2023-01-31T00:38:43;100345.81;;;-9.73;79.03
60089;BME280;45961;53.574;55.878;2023-01-31T00:39:45;100344.91;;;-9.73;79.10
60089;BME280;45961;53.574;55.878;2023-01-31T00:40:53;100355.16;;;-9.80;78.82
60089;BME280;45961;53.574;55.878;2023-01-31T00:41:54;100346.59;;;-9.82;78.96
60089;BME280;45961;53.574;55.878;2023-01-31T00:42:55;100360.69;;;-9.74;78.99
60089;BME280;45961;53.574;55.878;2023-01-31T00:43:56;100355.50;;;-9.67;78.93
60089;BME280;45961;53.574;55.878;2023-01-31T00:44:57;100362.28;;;-9.66;78.64
60089;BME280;45961;53.574;55.878;2023-01-31T00:45:59;100359.94;;;-9.64;78.72
60089;BME280;45961;53.574;55.878;2023-01-31T00:47:00;100359.00;;;-9.65;78.52
60089;BME280;45961;53.574;55.878;2023-01-31T00:48:01;100356.97;;;-9.69;78.48
60089;BME280;45961;53.574;55.878;2023-01-31T00:49:02;100360.66;;;-9.65;78.50
60089;BME280;45961;53.574;55.878;2023-01-31T00:50:04;100362.56;;;-9.63;78.50
60089;BME280;45961;53.574;55.878;2023-01-31T00:51:06;100355.72;;;-9.55;78.45
60089;BME280;45961;53.574;55.878;2023-01-31T00:52:07;100363.16;;;-9.65;78.14
60089;BME280;45961;53.574;55.878;2023-01-31T00:53:08;100354.75;;;-9.66;78.22
60089;BME280;45961;53.574;55.878;2023-01-31T00:54:09;100305.59;;;-10.02;78.19
60089;BME280;45961;53.574;55.878;2023-01-31T00:55:11;100357.03;;;-9.78;78.11
60089;BME280;45961;53.574;55.878;2023-01-31T00:56:17;100356.75;;;-9.81;78.21
60089;BME280;45961;53.574;55.878;2023-01-31T00:57:18;100373.28;;;-9.83;78.35
60089;BME280;45961;53.574;55.878;2023-01-31T00:58:20;100354.16;;;-9.91;78.17
60089;BME280;45961;53.574;55.878;2023-01-31T01:00:05;100336.09;;;-10.06;78.29
60089;BME280;45961;53.574;55.878;2023-01-31T01:01:21;100352.28;;;-10.02;78.25
60089;BME280;45961;53.574;55.878;2023-01-31T01:02:24;100355.13;;;-10.08;78.45
60089;BME280;45961;53.574;55.878;2023-01-31T01:03:25;100349.19;;;-10.00;78.47
60089;BME280;45961;53.574;55.878;2023-01-31T01:04:27;100344.94;;;-10.09;78.60
60089;BME280;45961;53.574;55.878;2023-01-31T01:05:28;100344.38;;;-10.07;78.66
60089;BME280;45961;53.574;55.878;2023-01-31T01:06:30;100343.34;;;-10.09;78.65
60089;BME280;45961;53.574;55.878;2023-01-31T01:07:30;100345.41;;;-10.05;78.63
60089;BME280;45961;53.574;55.878;2023-01-31T01:08:34;100347.16;;;-10.04;78.51
60089;BME280;45961;53.574;55.878;2023-01-31T01:09:36;100340.88;;;-10.18;78.57
60089;BME280;45961;53.574;55.878;2023-01-31T01:10:37;100332.69;;;-10.25;78.78
60089;BME280;45961;53.574;55.878;2023-01-31T01:11:38;100342.94;;;-10.22;78.85
60089;BME280;45961;53.574;55.878;2023-01-31T01:12:39;100336.88;;;-10.43;79.08
60089;BME280;45961;53.574;55.878;2023-01-31T01:13:40;100344.38;;;-10.43;79.28
60089;BME280;45961;53.574;55.878;2023-01-31T01:14:41;100337.59;;;-10.35;79.52
60089;BME280;45961;53.574;55.878;2023-01-31T01:15:43;100332.47;;;-10.37;79.54
60089;BME280;45961;53.574;55.878;2023-01-31T01:16:44;100337.88;;;-10.32;79.44
60089;BME280;45961;53.574;55.878;2023-01-31T01:17:45;100330.81;;;-10.28;79.75
60089;BME280;45961;53.574;55.878;2023-01-31T01:18:47;100338.75;;;-10.32;79.61
60089;BME280;45961;53.574;55.878;2023-01-31T01:19:49;100336.94;;;-10.24;79.59
60089;BME280;45961;53.574;55.878;2023-01-31T01:20:50;100335.06;;;-10.27;79.40
60089;BME280;45961;53.574;55.878;2023-01-31T01:21:53;100351.69;;;-10.27;79.43
60089;BME280;45961;53.574;55.878;2023-01-31T01:22:54;100356.75;;;-10.17;79.52
60089;BME280;45961;53.574;55.878;2023-01-31T01:24:00;100354.94;;;-10.28;79.34
60089;BME280;45961;53.574;55.878;2023-01-31T01:25:02;100358.72;;;-10.23;79.36
60089;BME280;45961;53.574;55.878;2023-01-31T01:26:04;100356.13;;;-10.25;79.12
60089;BME280;45961;53.574;55.878;2023-01-31T01:27:09;100364.72;;;-10.21;79.07
60089;BME280;45961;53.574;55.878;2023-01-31T01:28:11;100355.75;;;-10.19;79.10
60089;BME280;45961;53.574;55.878;2023-01-31T01:29:12;100362.47;;;-10.09;79.07
60089;BME280;45961;53.574;55.878;2023-01-31T01:30:13;100360.88;;;-10.18;78.88
60089;BME280;45961;53.574;55.878;2023-01-31T01:31:15;100358.13;;;-10.21;78.83
60089;BME280;45961;53.574;55.878;2023-01-31T01:32:16;100354.00;;;-10.20;78.71
60089;BME280;45961;53.574;55.878;2023-01-31T01:33:17;100361.22;;;-10.23;78.69
60089;BME280;45961;53.574;55.878;2023-01-31T01:34:18;100342.94;;;-10.22;78.48
60089;BME280;45961;53.574;55.878;2023-01-31T01:35:19;100357.97;;;-10.22;78.40
60089;BME280;45961;53.574;55.878;2023-01-31T01:36:20;100361.91;;;-10.43;78.40
60089;BME280;45961;53.574;55.878;2023-01-31T01:37:22;100361.75;;;-10.36;78.46
60089;BME280;45961;53.574;55.878;2023-01-31T01:38:22;100355.84;;;-10.36;78.43
60089;BME280;45961;53.574;55.878;2023-01-31T01:39:24;100361.72;;;-10.27;78.59
60089;BME280;45961;53.574;55.878;2023-01-31T01:40:32;100358.50;;;-10.43;78.30
60089;BME280;45961;53.574;55.878;2023-01-31T01:41:34;100356.56;;;-10.29;78.40
60089;BME280;45961;53.574;55.878;2023-01-31T01:42:35;100356.13;;;-10.25;78.27
60089;BME280;45961;53.574;55.878;2023-01-31T01:44:58;100366.16;;;-10.42;78.00
60089;BME280;45961;53.574;55.878;2023-01-31T01:45:59;100358.06;;;-10.39;78.11
60089;BME280;45961;53.574;55.878;2023-01-31T01:47:00;100361.59;;;-10.46;78.04
60089;BME280;45961;53.574;55.878;2023-01-31T01:48:05;100364.13;;;-10.55;77.98
60089;BME280;45961;53.574;55.878;2023-01-31T01:49:28;100361.94;;;-10.60;78.09
60089;BME280;45961;53.574;55.878;2023-01-31T01:50:40;100355.78;;;-10.64;78.25
60089;BME280;45961;53.574;55.878;2023-01-31T01:51:44;100362.53;;;-10.63;78.17
60089;BME280;45961;53.574;55.878;2023-01-31T01:52:51;100352.09;;;-10.67;77.92
60089;BME280;45961;53.574;55.878;2023-01-31T01:53:56;100366.22;;;-10.68;77.81
60089;BME280;45961;53.574;55.878;2023-01-31T01:55:21;100357.06;;;-10.59;77.99
60089;BME280;45961;53.574;55.878;2023-01-31T01:56:31;100362.09;;;-10.67;77.76
60089;BME280;45961;53.574;55.878;2023-01-31T01:57:36;100359.72;;;-10.57;77.70
60089;BME280;45961;53.574;55.878;2023-01-31T01:58:43;100351.06;;;-10.70;77.62
60089;BME280;45961;53.574;55.878;2023-01-31T02:01:34;100335.22;;;-10.87;77.40
60089;BME280;45961;53.574;55.878;2023-01-31T02:02:42;100341.53;;;-10.82;77.24
60089;BME280;45961;53.574;55.878;2023-01-31T02:03:44;100388.44;;;-10.80;77.33
60089;BME280;45961;53.574;55.878;2023-01-31T02:04:47;100356.53;;;-10.91;77.48
60089;BME280;45961;53.574;55.878;2023-01-31T02:05:55;100359.78;;;-10.92;77.46
60089;BME280;45961;53.574;55.878;2023-01-31T02:06:58;100354.16;;;-10.89;77.58
60089;BME280;45961;53.574;55.878;2023-01-31T02:08:01;100358.91;;;-11.01;77.51
60089;BME280;45961;53.574;55.878;2023-01-31T02:09:05;100360.50;;;-10.84;77.81
60089;BME280;45961;53.574;55.878;2023-01-31T02:10:15;100353.63;;;-11.04;77.54
60089;BME280;45961;53.574;55.878;2023-01-31T02:11:24;100356.56;;;-11.08;77.66
60089;BME280;45961;53.574;55.878;2023-01-31T02:12:26;100360.81;;;-10.99;77.86
60089;BME280;45961;53.574;55.878;2023-01-31T02:13:29;100362.41;;;-10.99;77.79
60089;BME280;45961;53.574;55.878;2023-01-31T02:14:31;100372.88;;;-11.03;77.73
60089;BME280;45961;53.574;55.878;2023-01-31T02:15:54;100370.66;;;-11.00;77.65
60089;BME280;45961;53.574;55.878;2023-01-31T02:16:55;100365.94;;;-11.06;77.62
60089;BME280;45961;53.574;55.878;2023-01-31T02:17:56;100367.00;;;-11.04;77.54
60089;BME280;45961;53.574;55.878;2023-01-31T02:18:58;100372.44;;;-11.08;77.67
60089;BME280;45961;53.574;55.878;2023-01-31T02:22:04;100380.34;;;-11.03;77.53
60089;BME280;45961;53.574;55.878;2023-01-31T02:26:13;100379.34;;;-11.05;77.37
60089;BME280;45961;53.574;55.878;2023-01-31T02:31:22;100382.25;;;-11.18;77.40
60089;BME280;45961;53.574;55.878;2023-01-31T02:32:47;100377.88;;;-11.12;77.55
60089;BME280;45961;53.574;55.878;2023-01-31T02:34:13;100383.00;;;-11.19;77.36
60089;BME280;45961;53.574;55.878;2023-01-31T02:37:03;100377.44;;;-11.25;77.22
60089;BME280;45961;53.574;55.878;2023-01-31T02:39:59;100365.63;;;-11.52;77.81
60089;BME280;45961;53.574;55.878;2023-01-31T02:41:08;100370.00;;;-11.67;78.03
60089;BME280;45961;53.574;55.878;2023-01-31T02:45:25;100361.22;;;-11.55;78.64
60089;BME280;45961;53.574;55.878;2023-01-31T02:49:34;100370.00;;;-11.58;78.81
60089;BME280;45961;53.574;55.878;2023-01-31T02:51:04;100371.03;;;-11.65;78.82
60089;BME280;45961;53.574;55.878;2023-01-31T02:52:21;100372.50;;;-11.67;78.85
60089;BME280;45961;53.574;55.878;2023-01-31T02:53:35;100357.50;;;-11.76;79.02
60089;BME280;45961;53.574;55.878;2023-01-31T02:54:37;100354.69;;;-11.79;79.28
60089;BME280;45961;53.574;55.878;2023-01-31T02:56:10;100343.41;;;-11.84;79.48
60089;BME280;45961;53.574;55.878;2023-01-31T02:57:20;100350.03;;;-11.84;79.63
60089;BME280;45961;53.574;55.878;2023-01-31T02:58:21;100345.59;;;-11.78;79.71
60089;BME280;45961;53.574;55.878;2023-01-31T02:59:24;100341.19;;;-11.81;79.77
60089;BME280;45961;53.574;55.878;2023-01-31T03:00:32;100337.38;;;-11.77;79.79
60089;BME280;45961;53.574;55.878;2023-01-31T03:01:45;100347.81;;;-11.81;80.02
60089;BME280;45961;53.574;55.878;2023-01-31T03:02:47;100342.38;;;-11.86;80.06
60089;BME280;45961;53.574;55.878;2023-01-31T03:03:50;100348.28;;;-11.85;80.27
60089;BME280;45961;53.574;55.878;2023-01-31T03:04:51;100344.59;;;-11.89;80.42
60089;BME280;45961;53.574;55.878;2023-01-31T03:07:16;100356.16;;;-11.81;80.53
60089;BME280;45961;53.574;55.878;2023-01-31T03:08:26;100359.28;;;-11.83;80.35
60089;BME280;45961;53.574;55.878;2023-01-31T03:09:58;100355.69;;;-12.03;80.24
60089;BME280;45961;53.574;55.878;2023-01-31T03:11:04;100364.38;;;-11.82;80.39
60089;BME280;45961;53.574;55.878;2023-01-31T03:13:46;100356.47;;;-11.86;79.84
60089;BME280;45961;53.574;55.878;2023-01-31T03:16:50;100374.94;;;-12.02;79.91
60089;BME280;45961;53.574;55.878;2023-01-31T03:18:14;100380.53;;;-11.96;80.00
60089;BME280;45961;53.574;55.878;2023-01-31T03:19:22;100375.53;;;-11.96;80.13
60089;BME280;45961;53.574;55.878;2023-01-31T03:20:57;100378.44;;;-12.00;80.09
60089;BME280;45961;53.574;55.878;2023-01-31T03:22:06;100375.13;;;-11.83;80.13
60089;BME280;45961;53.574;55.878;2023-01-31T03:23:19;100370.88;;;-11.84;79.86
60089;BME280;45961;53.574;55.878;2023-01-31T03:24:23;100374.78;;;-11.95;79.70
60089;BME280;45961;53.574;55.878;2023-01-31T03:25:28;100373.78;;;-11.88;79.69
60089;BME280;45961;53.574;55.878;2023-01-31T03:26:33;100367.78;;;-11.81;79.79
60089;BME280;45961;53.574;55.878;2023-01-31T03:27:36;100364.69;;;-11.87;79.79
60089;BME280;45961;53.574;55.878;2023-01-31T03:28:41;100362.50;;;-11.84;79.74
60089;BME280;45961;53.574;55.878;2023-01-31T03:29:43;100379.34;;;-11.82;79.70
60089;BME280;45961;53.574;55.878;2023-01-31T03:30:50;100361.31;;;-11.79;79.78
60089;BME280;45961;53.574;55.878;2023-01-31T03:31:57;100362.91;;;-11.80;79.58
60089;BME280;45961;53.574;55.878;2023-01-31T03:33:07;100370.28;;;-11.73;79.52
60089;BME280;45961;53.574;55.878;2023-01-31T03:34:11;100376.72;;;-11.75;79.55
60089;BME280;45961;53.574;55.878;2023-01-31T03:35:14;100368.06;;;-11.78;79.77
60089;BME280;45961;53.574;55.878;2023-01-31T03:39:23;100370.53;;;-11.78;79.40
60089;BME280;45961;53.574;55.878;2023-01-31T03:41:00;100355.00;;;-11.84;79.40
60089;BME280;45961;53.574;55.878;2023-01-31T03:42:11;100372.91;;;-11.71;79.41
60089;BME280;45961;53.574;55.878;2023-01-31T03:43:23;100366.47;;;-11.69;79.12
60089;BME280;45961;53.574;55.878;2023-01-31T03:45:58;100389.09;;;-11.85;79.23
60089;BME280;45961;53.574;55.878;2023-01-31T03:47:13;100382.59;;;-11.91;79.42
60089;BME280;45961;53.574;55.878;2023-01-31T03:48:16;100383.34;;;-11.75;79.63
60089;BME280;45961;53.574;55.878;2023-01-31T03:49:21;100382.31;;;-11.77;79.54
60089;BME280;45961;53.574;55.878;2023-01-31T03:50:41;100389.94;;;-11.76;79.49
60089;BME280;45961;53.574;55.878;2023-01-31T03:51:47;100379.50;;;-11.80;79.61
60089;BME280;45961;53.574;55.878;2023-01-31T03:52:59;100396.56;;;-11.76;79.54
60089;BME280;45961;53.574;55.878;2023-01-31T03:54:10;100397.88;;;-11.71;79.69
60089;BME280;45961;53.574;55.878;2023-01-31T03:55:20;100399.06;;;-11.68;79.62
60089;BME280;45961;53.574;55.878;2023-01-31T03:56:45;100392.03;;;-11.63;79.69
60089;BME280;45961;53.574;55.878;2023-01-31T03:57:51;100375.53;;;-11.78;79.72
60089;BME280;45961;53.574;55.878;2023-01-31T03:58:57;100402.03;;;-11.63;79.62
60089;BME280;45961;53.574;55.878;2023-01-31T04:00:00;100392.31;;;-11.77;79.61
60089;BME280;45961;53.574;55.878;2023-01-31T04:01:05;100372.03;;;-11.80;79.81
60089;BME280;45961;53.574;55.878;2023-01-31T04:02:11;100353.22;;;-11.94;79.61
60089;BME280;45961;53.574;55.878;2023-01-31T04:03:23;100389.09;;;-11.68;79.67
60089;BME280;45961;53.574;55.878;2023-01-31T04:04:30;100331.59;;;-12.02;79.84
60089;BME280;45961;53.574;55.878;2023-01-31T04:05:35;100390.00;;;-11.58;79.69
60089;BME280;45961;53.574;55.878;2023-01-31T04:06:38;100398.34;;;-11.58;79.81
60089;BME280;45961;53.574;55.878;2023-01-31T04:07:40;100395.84;;;-11.58;79.84
60089;BME280;45961;53.574;55.878;2023-01-31T04:08:42;100394.09;;;-11.59;79.65
60089;BME280;45961;53.574;55.878;2023-01-31T04:09:46;100399.81;;;-11.69;79.86
60089;BME280;45961;53.574;55.878;2023-01-31T04:10:48;100403.06;;;-11.61;80.30
60089;BME280;45961;53.574;55.878;2023-01-31T04:11:50;100398.53;;;-11.56;80.24
60089;BME280;45961;53.574;55.878;2023-01-31T04:12:52;100363.09;;;-11.70;80.04
60089;BME280;45961;53.574;55.878;2023-01-31T04:13:54;100401.75;;;-11.57;79.88
60089;BME280;45961;53.574;55.878;2023-01-31T04:14:55;100396.16;;;-11.55;79.92
60089;BME280;45961;53.574;55.878;2023-01-31T04:15:56;100407.47;;;-11.50;79.77
60089;BME280;45961;53.574;55.878;2023-01-31T04:16:57;100413.84;;;-11.45;79.76
60089;BME280;45961;53.574;55.878;2023-01-31T04:17:58;100401.47;;;-11.43;79.80
60089;BME280;45961;53.574;55.878;2023-01-31T04:18:59;100385.28;;;-11.55;79.77
60089;BME280;45961;53.574;55.878;2023-01-31T04:20:00;100409.28;;;-11.49;79.82
60089;BME280;45961;53.574;55.878;2023-01-31T04:21:01;100404.72;;;-11.53;79.82
60089;BME280;45961;53.574;55.878;2023-01-31T04:22:02;100408.22;;;-11.51;79.84
60089;BME280;45961;53.574;55.878;2023-01-31T04:23:03;100398.22;;;-11.51;79.85
60089;BME280;45961;53.574;55.878;2023-01-31T04:24:04;100403.09;;;-11.52;79.96
60089;BME280;45961;53.574;55.878;2023-01-31T04:25:06;100400.91;;;-11.49;79.72
60089;BME280;45961;53.574;55.878;2023-01-31T04:26:07;100400.72;;;-11.51;79.76
60089;BME280;45961;53.574;55.878;2023-01-31T04:27:08;100397.66;;;-11.48;79.66
60089;BME280;45961;53.574;55.878;2023-01-31T04:28:09;100399.72;;;-11.53;79.63
60089;BME280;45961;53.574;55.878;2023-01-31T04:29:10;100413.53;;;-11.48;79.45
60089;BME280;45961;53.574;55.878;2023-01-31T04:30:11;100395.19;;;-11.39;79.57
60089;BME280;45961;53.574;55.878;2023-01-31T04:31:12;100397.97;;;-11.36;79.37
60089;BME280;45961;53.574;55.878;2023-01-31T04:32:14;100394.59;;;-11.28;79.38
60089;BME280;45961;53.574;55.878;2023-01-31T04:33:15;100393.28;;;-11.33;79.08
60089;BME280;45961;53.574;55.878;2023-01-31T04:34:16;100395.34;;;-11.21;78.91
60089;BME280;45961;53.574;55.878;2023-01-31T04:35:17;100386.63;;;-11.50;79.00
60089;BME280;45961;53.574;55.878;2023-01-31T04:36:18;100398.28;;;-11.33;78.74
60089;BME280;45961;53.574;55.878;2023-01-31T04:37:19;100393.44;;;-11.23;78.80
60089;BME280;45961;53.574;55.878;2023-01-31T04:38:19;100410.03;;;-11.24;78.58
60089;BME280;45961;53.574;55.878;2023-01-31T04:39:20;100399.75;;;-11.27;78.44
60089;BME280;45961;53.574;55.878;2023-01-31T04:40:21;100387.81;;;-11.47;78.41
60089;BME280;45961;53.574;55.878;2023-01-31T04:41:22;100407.66;;;-11.31;78.68
60089;BME280;45961;53.574;55.878;2023-01-31T04:42:23;100400.63;;;-11.18;78.54
60089;BME280;45961;53.574;55.878;2023-01-31T04:43:24;100390.94;;;-11.23;78.52
60089;BME280;45961;53.574;55.878;2023-01-31T04:44:25;100401.53;;;-11.08;78.51
60089;BME280;45961;53.574;55.878;2023-01-31T04:45:26;100401.69;;;-11.15;78.11
60089;BME280;45961;53.574;55.878;2023-01-31T04:46:27;100400.63;;;-11.18;78.20
60089;BME280;45961;53.574;55.878;2023-01-31T04:47:28;100403.00;;;-11.19;78.07
60089;BME280;45961;53.574;55.878;2023-01-31T04:48:29;100403.72;;;-11.03;78.13
60089;BME280;45961;53.574;55.878;2023-01-31T04:49:30;100409.91;;;-11.08;78.01
60089;BME280;45961;53.574;55.878;2023-01-31T04:50:31;100413.59;;;-10.96;77.84
60089;BME280;45961;53.574;55.878;2023-01-31T04:51:32;100397.72;;;-10.96;77.78
60089;BME280;45961;53.574;55.878;2023-01-31T04:52:33;100409.78;;;-10.83;77.80
60089;BME280;45961;53.574;55.878;2023-01-31T04:53:34;100408.28;;;-10.81;77.56
60089;BME280;45961;53.574;55.878;2023-01-31T04:54:35;100410.06;;;-10.89;77.66
60089;BME280;45961;53.574;55.878;2023-01-31T04:55:37;100402.41;;;-10.82;77.44
60089;BME280;45961;53.574;55.878;2023-01-31T04:56:38;100404.63;;;-10.76;77.30
60089;BME280;45961;53.574;55.878;2023-01-31T04:57:39;100409.47;;;-10.78;77.36
60089;BME280;45961;53.574;55.878;2023-01-31T04:58:39;100410.94;;;-10.80;77.53
60089;BME280;45961;53.574;55.878;2023-01-31T04:59:41;100407.28;;;-10.83;77.52
60089;BME280;45961;53.574;55.878;2023-01-31T05:00:42;100405.38;;;-10.77;77.51
60089;BME280;45961;53.574;55.878;2023-01-31T05:01:44;100402.25;;;-10.75;77.56
60089;BME280;45961;53.574;55.878;2023-01-31T05:02:45;100403.31;;;-10.73;77.63
60089;BME280;45961;53.574;55.878;2023-01-31T05:03:46;100405.63;;;-10.65;77.62
60089;BME280;45961;53.574;55.878;2023-01-31T05:04:47;100402.53;;;-10.54;77.39
60089;BME280;45961;53.574;55.878;2023-01-31T05:05:49;100407.84;;;-10.60;77.36
60089;BME280;45961;53.574;55.878;2023-01-31T05:06:50;100396.22;;;-10.68;77.31
60089;BME280;45961;53.574;55.878;2023-01-31T05:07:51;100405.19;;;-10.61;77.37
60089;BME280;45961;53.574;55.878;2023-01-31T05:08:52;100407.69;;;-10.61;77.50
60089;BME280;45961;53.574;55.878;2023-01-31T05:09:54;100412.69;;;-10.53;77.44
60089;BME280;45961;53.574;55.878;2023-01-31T05:10:58;100412.50;;;-10.46;77.43
60089;BME280;45961;53.574;55.878;2023-01-31T05:12:00;100404.09;;;-10.37;77.20
60089;BME280;45961;53.574;55.878;2023-01-31T05:13:01;100411.63;;;-10.37;77.10
60089;BME280;45961;53.574;55.878;2023-01-31T05:14:02;100403.06;;;-10.31;77.03
60089;BME280;45961;53.574;55.878;2023-01-31T05:15:03;100390.88;;;-10.36;76.82
60089;BME280;45961;53.574;55.878;2023-01-31T05:16:08;100405.25;;;-10.25;76.72
60089;BME280;45961;53.574;55.878;2023-01-31T05:17:10;100409.06;;;-10.20;76.72
60089;BME280;45961;53.574;55.878;2023-01-31T05:18:11;100409.16;;;-10.10;76.43
60089;BME280;45961;53.574;55.878;2023-01-31T05:19:15;100402.81;;;-10.06;76.32
60089;BME280;45961;53.574;55.878;2023-01-31T05:20:16;100415.94;;;-10.09;76.20
60089;BME280;45961;53.574;55.878;2023-01-31T05:21:17;100414.41;;;-9.98;75.95
60089;BME280;45961;53.574;55.878;2023-01-31T05:22:18;100416.19;;;-9.97;75.88
60089;BME280;45961;53.574;55.878;2023-01-31T05:23:22;100420.75;;;-10.02;75.71
60089;BME280;45961;53.574;55.878;2023-01-31T05:24:31;100424.13;;;-9.92;75.65
60089;BME280;45961;53.574;55.878;2023-01-31T05:25:34;100412.75;;;-9.80;75.46
60089;BME280;45961;53.574;55.878;2023-01-31T05:26:35;100417.47;;;-9.83;75.33
60089;BME280;45961;53.574;55.878;2023-01-31T05:27:36;100422.94;;;-9.87;75.09
60089;BME280;45961;53.574;55.878;2023-01-31T05:28:37;100410.25;;;-9.80;75.07
60089;BME280;45961;53.574;55.878;2023-01-31T05:29:38;100420.25;;;-9.80;74.77
60089;BME280;45961;53.574;55.878;2023-01-31T05:30:39;100411.53;;;-9.75;74.74
60089;BME280;45961;53.574;55.878;2023-01-31T05:31:40;100412.78;;;-9.61;74.88
60089;BME280;45961;53.574;55.878;2023-01-31T05:32:41;100413.28;;;-9.74;74.47
60089;BME280;45961;53.574;55.878;2023-01-31T05:33:44;100410.09;;;-9.82;74.41
60089;BME280;45961;53.574;55.878;2023-01-31T05:34:46;100416.63;;;-9.65;74.64
60089;BME280;45961;53.574;55.878;2023-01-31T05:35:47;100411.72;;;-9.55;74.41
60089;BME280;45961;53.574;55.878;2023-01-31T05:36:48;100416.75;;;-9.55;74.18
60089;BME280;45961;53.574;55.878;2023-01-31T05:37:54;100417.91;;;-9.51;74.12
60089;BME280;45961;53.574;55.878;2023-01-31T05:38:55;100412.00;;;-9.52;73.99
60089;BME280;45961;53.574;55.878;2023-01-31T05:39:56;100407.81;;;-9.42;73.79
60089;BME280;45961;53.574;55.878;2023-01-31T05:40:57;100414.66;;;-9.50;73.57
60089;BME280;45961;53.574;55.878;2023-01-31T05:41:58;100413.91;;;-9.49;73.74
60089;BME280;45961;53.574;55.878;2023-01-31T05:43:01;100415.00;;;-9.56;73.70
60089;BME280;45961;53.574;55.878;2023-01-31T05:44:02;100406.66;;;-9.46;73.82
60089;BME280;45961;53.574;55.878;2023-01-31T05:45:03;100405.25;;;-9.34;73.67
60089;BME280;45961;53.574;55.878;2023-01-31T05:46:05;100411.84;;;-9.45;73.48
60089;BME280;45961;53.574;55.878;2023-01-31T05:47:06;100417.75;;;-9.53;73.49
60089;BME280;45961;53.574;55.878;2023-01-31T05:48:07;100421.97;;;-9.43;73.60
60089;BME280;45961;53.574;55.878;2023-01-31T05:49:12;100422.88;;;-9.42;73.43
60089;BME280;45961;53.574;55.878;2023-01-31T05:50:13;100415.09;;;-9.27;73.56
60089;BME280;45961;53.574;55.878;2023-01-31T05:51:14;100421.47;;;-9.30;73.36
60089;BME280;45961;53.574;55.878;2023-01-31T05:52:15;100416.03;;;-9.35;73.23
60089;BME280;45961;53.574;55.878;2023-01-31T05:53:16;100426.47;;;-9.30;73.31
60089;BME280;45961;53.574;55.878;2023-01-31T05:54:18;100429.16;;;-9.37;73.21
60089;BME280;45961;53.574;55.878;2023-01-31T05:55:20;100433.81;;;-9.51;73.36
60089;BME280;45961;53.574;55.878;2023-01-31T05:56:21;100430.97;;;-9.45;73.36
60089;BME280;45961;53.574;55.878;2023-01-31T05:57:23;100420.53;;;-9.22;73.37
60089;BME280;45961;53.574;55.878;2023-01-31T05:58:24;100418.66;;;-9.33;73.15
60089;BME280;45961;53.574;55.878;2023-01-31T05:59:25;100423.03;;;-9.22;73.22
60089;BME280;45961;53.574;55.878;2023-01-31T06:00:26;100413.56;;;-9.16;72.99